sensor_id;sensor_type;location;lat;lon;timestamp;pressure;altitude;pressure_sealevel;temperature;humidity
8575;BME280;4325;42.520;27.448;2023-08-21T00:00:55;100936.19;;;22.62;100.00
8575;BME280;4325;42.520;27.448;2023-08-21T00:03:22;100925.69;;;22.59;100.00
8575;BME280;4325;42.520;27.448;2023-08-21T00:05:49;100931.97;;;22.56;100.00
8575;BME280;4325;42.520;27.448;2023-08-21T00:08:16;100934.78;;;22.56;100.00
8575;BME280;4325;42.520;27.448;2023-08-21T00:10:43;100926.63;;;22.51;100.00
8575;BME280;4325;42.520;27.448;2023-08-21T00:13:10;100928.13;;;22.48;100.00
8575;BME280;4325;42.520;27.448;2023-08-21T00:15:37;100931.25;;;22.47;100.00
8575;BME280;4325;42.520;27.448;2023-08-21T00:18:06;100927.91;;;22.41;100.00
8575;BME280;4325;42.520;27.448;2023-08-21T00:20:33;100926.81;;;22.33;100.00
8575;BME280;4325;42.520;27.448;2023-08-21T00:23:00;100935.53;;;22.32;100.00
8575;BME280;4325;42.520;27.448;2023-08-21T00:25:26;100938.53;;;22.27;100.00
8575;BME280;4325;42.520;27.448;2023-08-21T00:27:53;100933.53;;;22.20;100.00
8575;BME280;4325;42.520;27.448;2023-08-21T00:30:20;100933.41;;;22.17;100.00
8575;BME280;4325;42.520;27.448;2023-08-21T00:32:47;100931.91;;;22.19;100.00
8575;BME280;4325;42.520;27.448;2023-08-21T00:35:16;100927.47;;;22.18;100.00
8575;BME280;4325;42.520;27.448;2023-08-21T00:37:43;100923.78;;;22.14;100.00
8575;BME280;4325;42.520;27.448;2023-08-21T00:40:10;100921.31;;;22.13;100.00
8575;BME280;4325;42.520;27.448;2023-08-21T00:42:37;100921.88;;;22.06;100.00
8575;BME280;4325;42.520;27.448;2023-08-21T00:45:05;100911.41;;;22.03;100.00
8575;BME280;4325;42.520;27.448;2023-08-21T00:47:33;100920.81;;;21.99;100.00
8575;BME280;4325;42.520;27.448;2023-08-21T00:50:01;100918.38;;;21.97;100.00
8575;BME280;4325;42.520;27.448;2023-08-21T00:52:30;100911.97;;;21.97;100.00
8575;BME280;4325;42.520;27.448;2023-08-21T00:54:57;100916.47;;;21.89;100.00
8575;BME280;4325;42.520;27.448;2023-08-21T00:57:25;100914.97;;;21.92;100.00
8575;BME280;4325;42.520;27.448;2023-08-21T00:59:53;100923.34;;;21.92;100.00
8575;BME280;4325;42.520;27.448;2023-08-21T01:02:20;100921.59;;;21.87;100.00
8575;BME280;4325;42.520;27.448;2023-08-21T01:04:47;100915.53;;;21.85;100.00
8575;BME280;4325;42.520;27.448;2023-08-21T01:07:14;100918.97;;;21.82;100.00
8575;BME280;4325;42.520;27.448;2023-08-21T01:10:00;100918.50;;;21.80;100.00
8575;BME280;4325;42.520;27.448;2023-08-21T01:12:33;100926.50;;;21.82;100.00
8575;BME280;4325;42.520;27.448;2023-08-21T01:15:04;100922.44;;;21.79;100.00
8575;BME280;4325;42.520;27.448;2023-08-21T01:17:34;100916.41;;;21.77;100.00
8575;BME280;4325;42.520;27.448;2023-08-21T01:20:03;100918.72;;;21.75;100.00
8575;BME280;4325;42.520;27.448;2023-08-21T01:22:36;100922.84;;;21.69;100.00
8575;BME280;4325;42.520;27.448;2023-08-21T01:25:05;100918.66;;;21.63;100.00
8575;BME280;4325;42.520;27.448;2023-08-21T01:27:33;100918.78;;;21.66;100.00
8575;BME280;4325;42.520;27.448;2023-08-21T01:30:02;100916.81;;;21.67;100.00
8575;BME280;4325;42.520;27.448;2023-08-21T01:32:37;100922.03;;;21.68;100.00
8575;BME280;4325;42.520;27.448;2023-08-21T01:35:07;100923.31;;;21.71;100.00
8575;BME280;4325;42.520;27.448;2023-08-21T01:37:36;100915.47;;;21.73;100.00
8575;BME280;4325;42.520;27.448;2023-08-21T01:40:06;100919.38;;;21.72;100.00
8575;BME280;4325;42.520;27.448;2023-08-21T01:42:33;100920.53;;;21.71;100.00
8575;BME280;4325;42.520;27.448;2023-08-21T01:45:00;100921.91;;;21.65;100.00
8575;BME280;4325;42.520;27.448;2023-08-21T01:47:27;100921.09;;;21.64;100.00
8575;BME280;4325;42.520;27.448;2023-08-21T01:49:54;100923.06;;;21.64;100.00
8575;BME280;4325;42.520;27.448;2023-08-21T01:52:21;100920.28;;;21.64;100.00
8575;BME280;4325;42.520;27.448;2023-08-21T01:54:50;100924.66;;;21.53;100.00
8575;BME280;4325;42.520;27.448;2023-08-21T01:57:19;100923.69;;;21.49;100.00
8575;BME280;4325;42.520;27.448;2023-08-21T01:59:46;100924.38;;;21.46;100.00
8575;BME280;4325;42.520;27.448;2023-08-21T02:02:12;100926.19;;;21.42;100.00
8575;BME280;4325;42.520;27.448;2023-08-21T02:04:39;100922.63;;;21.41;100.00
8575;BME280;4325;42.520;27.448;2023-08-21T02:07:06;100921.16;;;21.35;100.00
8575;BME280;4325;42.520;27.448;2023-08-21T02:09:34;100930.34;;;21.36;100.00
8575;BME280;4325;42.520;27.448;2023-08-21T02:12:01;100918.84;;;21.37;100.00
8575;BME280;4325;42.520;27.448;2023-08-21T02:14:29;100934.00;;;21.28;100.00
8575;BME280;4325;42.520;27.448;2023-08-21T02:16:56;100925.31;;;21.29;100.00
8575;BME280;4325;42.520;27.448;2023-08-21T02:19:23;100926.81;;;21.27;100.00
8575;BME280;4325;42.520;27.448;2023-08-21T02:21:50;100937.97;;;21.27;100.00
8575;BME280;4325;42.520;27.448;2023-08-21T02:24:17;100931.41;;;21.23;100.00
8575;BME280;4325;42.520;27.448;2023-08-21T02:26:44;100920.16;;;21.19;100.00
8575;BME280;4325;42.520;27.448;2023-08-21T02:29:11;100929.34;;;21.20;100.00
8575;BME280;4325;42.520;27.448;2023-08-21T02:31:40;100939.19;;;21.17;100.00
8575;BME280;4325;42.520;27.448;2023-08-21T02:34:07;100931.81;;;21.13;100.00
8575;BME280;4325;42.520;27.448;2023-08-21T02:36:33;100934.91;;;21.20;100.00
8575;BME280;4325;42.520;27.448;2023-08-21T02:39:00;100928.03;;;21.17;100.00
8575;BME280;4325;42.520;27.448;2023-08-21T02:41:29;100933.94;;;21.16;100.00
8575;BME280;4325;42.520;27.448;2023-08-21T02:43:56;100926.53;;;21.20;100.00
8575;BME280;4325;42.520;27.448;2023-08-21T02:46:23;100936.72;;;21.16;100.00
8575;BME280;4325;42.520;27.448;2023-08-21T02:48:51;100937.69;;;21.20;100.00
8575;BME280;4325;42.520;27.448;2023-08-21T02:51:18;100936.72;;;21.16;100.00
8575;BME280;4325;42.520;27.448;2023-08-21T02:53:45;100933.94;;;21.16;100.00
8575;BME280;4325;42.520;27.448;2023-08-21T02:56:12;100933.28;;;21.10;100.00
8575;BME280;4325;42.520;27.448;2023-08-21T02:58:39;100933.59;;;21.17;100.00
8575;BME280;4325;42.520;27.448;2023-08-21T03:01:06;100937.81;;;21.23;100.00
8575;BME280;4325;42.520;27.448;2023-08-21T03:03:33;100934.41;;;21.18;100.00
8575;BME280;4325;42.520;27.448;2023-08-21T03:06:02;100929.53;;;21.15;100.00
8575;BME280;4325;42.520;27.448;2023-08-21T03:08:29;100936.03;;;21.19;100.00
8575;BME280;4325;42.520;27.448;2023-08-21T03:10:56;100920.00;;;21.16;100.00
8575;BME280;4325;42.520;27.448;2023-08-21T03:13:23;100926.41;;;21.16;100.00
8575;BME280;4325;42.520;27.448;2023-08-21T03:15:50;100934.28;;;21.14;100.00
8575;BME280;4325;42.520;27.448;2023-08-21T03:18:17;100937.69;;;21.20;100.00
8575;BME280;4325;42.520;27.448;2023-08-21T03:20:44;100932.13;;;21.20;100.00
8575;BME280;4325;42.520;27.448;2023-08-21T03:23:13;100934.41;;;21.18;100.00
8575;BME280;4325;42.520;27.448;2023-08-21T03:25:40;100936.03;;;21.19;100.00
8575;BME280;4325;42.520;27.448;2023-08-21T03:28:07;100940.25;;;21.25;100.00
8575;BME280;4325;42.520;27.448;2023-08-21T03:30:34;100943.53;;;21.27;100.00
8575;BME280;4325;42.520;27.448;2023-08-21T03:33:01;100934.34;;;21.26;100.00
8575;BME280;4325;42.520;27.448;2023-08-21T03:35:28;100941.69;;;21.31;100.00
8575;BME280;4325;42.520;27.448;2023-08-21T03:37:55;100947.06;;;21.36;100.00
8575;BME280;4325;42.520;27.448;2023-08-21T03:40:23;100946.13;;;21.32;100.00
8575;BME280;4325;42.520;27.448;2023-08-21T03:42:50;100938.25;;;21.34;100.00
8575;BME280;4325;42.520;27.448;2023-08-21T03:45:17;100943.00;;;21.33;100.00
8575;BME280;4325;42.520;27.448;2023-08-21T03:47:44;100935.72;;;21.41;100.00
8575;BME280;4325;42.520;27.448;2023-08-21T03:50:11;100948.63;;;21.45;100.00
8575;BME280;4325;42.520;27.448;2023-08-21T03:52:38;100952.50;;;21.53;100.00
8575;BME280;4325;42.520;27.448;2023-08-21T03:55:05;100950.19;;;21.55;99.75
8575;BME280;4325;42.520;27.448;2023-08-21T03:57:34;100956.38;;;21.60;98.73
8575;BME280;4325;42.520;27.448;2023-08-21T04:00:02;100950.94;;;21.64;97.63
8575;BME280;4325;42.520;27.448;2023-08-21T04:02:30;100955.78;;;21.76;95.30
8575;BME280;4325;42.520;27.448;2023-08-21T04:04:56;100952.88;;;21.84;94.06
8575;BME280;4325;42.520;27.448;2023-08-21T04:07:23;100964.69;;;21.90;93.93
8575;BME280;4325;42.520;27.448;2023-08-21T04:09:50;100962.28;;;22.00;95.29
8575;BME280;4325;42.520;27.448;2023-08-21T04:12:17;100968.09;;;22.07;97.74
8575;BME280;4325;42.520;27.448;2023-08-21T04:14:46;100966.06;;;22.16;96.21
8575;BME280;4325;42.520;27.448;2023-08-21T04:17:13;100967.94;;;22.24;96.16
8575;BME280;4325;42.520;27.448;2023-08-21T04:19:39;100973.78;;;22.31;95.94
8575;BME280;4325;42.520;27.448;2023-08-21T04:22:06;100983.34;;;22.43;95.25
8575;BME280;4325;42.520;27.448;2023-08-21T04:24:33;100984.75;;;22.49;94.50
8575;BME280;4325;42.520;27.448;2023-08-21T04:27:00;100978.94;;;22.54;95.38
8575;BME280;4325;42.520;27.448;2023-08-21T04:29:27;100981.03;;;22.57;95.43
8575;BME280;4325;42.520;27.448;2023-08-21T04:31:56;100983.63;;;22.62;94.73
8575;BME280;4325;42.520;27.448;2023-08-21T04:34:23;100982.94;;;22.65;92.93
8575;BME280;4325;42.520;27.448;2023-08-21T04:36:50;100984.13;;;22.76;89.39
8575;BME280;4325;42.520;27.448;2023-08-21T04:39:17;100982.16;;;22.88;89.11
8575;BME280;4325;42.520;27.448;2023-08-21T04:41:44;100974.47;;;22.97;87.91
8575;BME280;4325;42.520;27.448;2023-08-21T04:44:11;100985.19;;;23.08;88.63
8575;BME280;4325;42.520;27.448;2023-08-21T04:46:38;100988.56;;;23.13;88.21
8575;BME280;4325;42.520;27.448;2023-08-21T04:49:12;100988.91;;;23.24;88.54
8575;BME280;4325;42.520;27.448;2023-08-21T04:51:40;100983.66;;;23.34;87.20
8575;BME280;4325;42.520;27.448;2023-08-21T04:54:07;100987.72;;;23.49;86.28
8575;BME280;4325;42.520;27.448;2023-08-21T04:56:34;100990.84;;;23.59;85.38
8575;BME280;4325;42.520;27.448;2023-08-21T04:59:01;100984.09;;;23.73;84.42
8575;BME280;4325;42.520;27.448;2023-08-21T05:01:28;100984.84;;;23.85;83.90
8575;BME280;4325;42.520;27.448;2023-08-21T05:03:55;100989.59;;;23.97;81.11
8575;BME280;4325;42.520;27.448;2023-08-21T05:06:24;100988.38;;;24.10;82.00
8575;BME280;4325;42.520;27.448;2023-08-21T05:08:51;100991.69;;;24.27;76.87
8575;BME280;4325;42.520;27.448;2023-08-21T05:11:18;100999.38;;;24.46;73.00
8575;BME280;4325;42.520;27.448;2023-08-21T05:13:45;100998.59;;;24.61;73.84
8575;BME280;4325;42.520;27.448;2023-08-21T05:16:12;101003.69;;;24.71;73.96
8575;BME280;4325;42.520;27.448;2023-08-21T05:18:39;101002.72;;;24.79;73.50
8575;BME280;4325;42.520;27.448;2023-08-21T05:21:08;101007.41;;;24.91;69.75
8575;BME280;4325;42.520;27.448;2023-08-21T05:23:36;101010.03;;;25.00;68.41
8575;BME280;4325;42.520;27.448;2023-08-21T05:26:03;101010.22;;;25.07;65.46
8575;BME280;4325;42.520;27.448;2023-08-21T05:28:30;101012.00;;;25.15;66.24
8575;BME280;4325;42.520;27.448;2023-08-21T05:30:57;101008.38;;;25.30;64.01
8575;BME280;4325;42.520;27.448;2023-08-21T05:33:24;101010.81;;;25.47;62.84
8575;BME280;4325;42.520;27.448;2023-08-21T05:35:51;101015.59;;;25.62;62.60
8575;BME280;4325;42.520;27.448;2023-08-21T05:38:19;101022.38;;;25.80;61.83
8575;BME280;4325;42.520;27.448;2023-08-21T05:40:47;101017.06;;;25.94;62.36
8575;BME280;4325;42.520;27.448;2023-08-21T05:43:16;101019.19;;;26.16;60.18
8575;BME280;4325;42.520;27.448;2023-08-21T05:45:43;101011.06;;;26.31;58.72
8575;BME280;4325;42.520;27.448;2023-08-21T05:48:10;101012.59;;;26.47;58.68
8575;BME280;4325;42.520;27.448;2023-08-21T05:50:37;101014.84;;;26.61;57.03
8575;BME280;4325;42.520;27.448;2023-08-21T05:53:04;101010.25;;;26.72;56.56
8575;BME280;4325;42.520;27.448;2023-08-21T05:55:31;101010.94;;;26.88;55.82
8575;BME280;4325;42.520;27.448;2023-08-21T05:57:59;101013.44;;;26.93;55.33
8575;BME280;4325;42.520;27.448;2023-08-21T06:00:26;101014.44;;;27.04;54.60
8575;BME280;4325;42.520;27.448;2023-08-21T06:02:53;101018.25;;;27.15;54.65
8575;BME280;4325;42.520;27.448;2023-08-21T06:05:20;101013.06;;;27.17;53.48
8575;BME280;4325;42.520;27.448;2023-08-21T06:07:47;101017.84;;;27.17;53.03
8575;BME280;4325;42.520;27.448;2023-08-21T06:10:14;101014.78;;;27.25;53.66
8575;BME280;4325;42.520;27.448;2023-08-21T06:12:41;101016.78;;;27.47;53.44
8575;BME280;4325;42.520;27.448;2023-08-21T06:15:10;101012.88;;;27.56;53.76
8575;BME280;4325;42.520;27.448;2023-08-21T06:17:38;101019.19;;;27.75;54.65
8575;BME280;4325;42.520;27.448;2023-08-21T06:20:06;101024.66;;;27.94;53.33
8575;BME280;4325;42.520;27.448;2023-08-21T06:22:34;101012.75;;;28.04;52.85
8575;BME280;4325;42.520;27.448;2023-08-21T06:25:02;101020.19;;;28.20;51.63
8575;BME280;4325;42.520;27.448;2023-08-21T06:27:29;101025.16;;;28.33;51.79
8575;BME280;4325;42.520;27.448;2023-08-21T06:29:56;101029.44;;;28.53;51.14
8575;BME280;4325;42.520;27.448;2023-08-21T06:32:24;101027.53;;;28.61;49.99
8575;BME280;4325;42.520;27.448;2023-08-21T06:34:51;101036.44;;;28.66;50.15
8575;BME280;4325;42.520;27.448;2023-08-21T06:37:18;101036.13;;;28.75;50.50
8575;BME280;4325;42.520;27.448;2023-08-21T06:39:45;101039.94;;;28.93;48.29
8575;BME280;4325;42.520;27.448;2023-08-21T06:42:12;101036.47;;;29.10;49.15
8575;BME280;4325;42.520;27.448;2023-08-21T06:44:39;101036.25;;;29.29;48.32
8575;BME280;4325;42.520;27.448;2023-08-21T06:47:07;101036.03;;;29.52;47.60
8575;BME280;4325;42.520;27.448;2023-08-21T06:49:35;101033.72;;;29.75;47.27
8575;BME280;4325;42.520;27.448;2023-08-21T06:52:02;101035.47;;;29.90;45.09
8575;BME280;4325;42.520;27.448;2023-08-21T06:54:29;101040.00;;;30.05;44.79
8575;BME280;4325;42.520;27.448;2023-08-21T06:56:56;101042.06;;;30.19;44.12
8575;BME280;4325;42.520;27.448;2023-08-21T06:59:23;101046.94;;;30.33;44.03
8575;BME280;4325;42.520;27.448;2023-08-21T07:01:50;101040.56;;;30.46;43.95
8575;BME280;4325;42.520;27.448;2023-08-21T07:04:17;101047.09;;;30.68;43.51
8575;BME280;4325;42.520;27.448;2023-08-21T07:06:46;101048.78;;;30.97;43.09
8575;BME280;4325;42.520;27.448;2023-08-21T07:09:13;101033.84;;;31.14;45.22
8575;BME280;4325;42.520;27.448;2023-08-21T07:11:40;101039.88;;;31.38;42.53
8575;BME280;4325;42.520;27.448;2023-08-21T07:14:07;101044.72;;;31.65;41.62
8575;BME280;4325;42.520;27.448;2023-08-21T07:16:34;101036.16;;;31.90;42.83
8575;BME280;4325;42.520;27.448;2023-08-21T07:19:01;101040.53;;;32.19;40.76
8575;BME280;4325;42.520;27.448;2023-08-21T07:21:28;101034.75;;;32.40;39.12
8575;BME280;4325;42.520;27.448;2023-08-21T07:23:56;101042.78;;;32.59;39.09
8575;BME280;4325;42.520;27.448;2023-08-21T07:26:23;101043.88;;;32.80;37.99
8575;BME280;4325;42.520;27.448;2023-08-21T07:28:50;101032.03;;;32.92;38.05
8575;BME280;4325;42.520;27.448;2023-08-21T07:31:18;101034.41;;;33.04;37.94
8575;BME280;4325;42.520;27.448;2023-08-21T07:33:45;101031.06;;;33.12;38.64
8575;BME280;4325;42.520;27.448;2023-08-21T07:36:12;101038.75;;;33.19;38.61
8575;BME280;4325;42.520;27.448;2023-08-21T07:38:42;101035.78;;;33.33;38.16
8575;BME280;4325;42.520;27.448;2023-08-21T07:41:12;101032.38;;;33.49;38.41
8575;BME280;4325;42.520;27.448;2023-08-21T07:43:41;101029.13;;;33.50;36.92
8575;BME280;4325;42.520;27.448;2023-08-21T07:46:26;101020.84;;;33.66;35.63
8575;BME280;4325;42.520;27.448;2023-08-21T07:48:53;101033.59;;;33.88;35.63
8575;BME280;4325;42.520;27.448;2023-08-21T07:51:20;101026.06;;;34.09;35.14
8575;BME280;4325;42.520;27.448;2023-08-21T07:53:47;101022.22;;;34.52;34.44
8575;BME280;4325;42.520;27.448;2023-08-21T07:56:16;101025.38;;;34.88;32.33
8575;BME280;4325;42.520;27.448;2023-08-21T07:58:43;101017.88;;;35.25;32.78
8575;BME280;4325;42.520;27.448;2023-08-21T08:01:09;101015.50;;;36.09;31.74
8575;BME280;4325;42.520;27.448;2023-08-21T08:03:36;101015.34;;;37.52;29.32
8575;BME280;4325;42.520;27.448;2023-08-21T08:06:04;101021.75;;;38.55;27.61
8575;BME280;4325;42.520;27.448;2023-08-21T08:08:31;101016.34;;;40.22;23.29
8575;BME280;4325;42.520;27.448;2023-08-21T08:11:01;101015.88;;;41.53;23.51
8575;BME280;4325;42.520;27.448;2023-08-21T08:13:31;101020.06;;;43.93;20.88
8575;BME280;4325;42.520;27.448;2023-08-21T08:15:58;101010.53;;;46.42;19.96
8575;BME280;4325;42.520;27.448;2023-08-21T08:18:25;101016.72;;;47.34;18.53
8575;BME280;4325;42.520;27.448;2023-08-21T08:20:52;101009.63;;;48.66;17.72
8575;BME280;4325;42.520;27.448;2023-08-21T08:23:19;101014.88;;;49.07;16.09
8575;BME280;4325;42.520;27.448;2023-08-21T08:25:48;101017.47;;;49.27;16.12
8575;BME280;4325;42.520;27.448;2023-08-21T08:28:15;101013.50;;;49.30;16.35
8575;BME280;4325;42.520;27.448;2023-08-21T08:30:45;101007.00;;;49.70;16.46
8575;BME280;4325;42.520;27.448;2023-08-21T08:33:12;101002.69;;;49.14;15.29
8575;BME280;4325;42.520;27.448;2023-08-21T08:35:39;101002.50;;;49.64;15.46
8575;BME280;4325;42.520;27.448;2023-08-21T08:38:06;101009.44;;;49.55;15.57
8575;BME280;4325;42.520;27.448;2023-08-21T08:40:34;101003.22;;;50.57;15.78
8575;BME280;4325;42.520;27.448;2023-08-21T08:43:04;101000.44;;;51.61;14.19
8575;BME280;4325;42.520;27.448;2023-08-21T08:45:33;101004.69;;;51.79;13.58
8575;BME280;4325;42.520;27.448;2023-08-21T08:48:04;101001.41;;;52.51;13.97
8575;BME280;4325;42.520;27.448;2023-08-21T08:50:37;100999.16;;;53.02;13.13
8575;BME280;4325;42.520;27.448;2023-08-21T08:53:10;100992.97;;;53.06;12.65
8575;BME280;4325;42.520;27.448;2023-08-21T08:55:39;100998.72;;;53.38;12.30
8575;BME280;4325;42.520;27.448;2023-08-21T08:58:06;100990.59;;;53.90;12.57
8575;BME280;4325;42.520;27.448;2023-08-21T09:00:33;100989.72;;;54.37;11.25
8575;BME280;4325;42.520;27.448;2023-08-21T09:03:00;100988.25;;;55.28;11.58
8575;BME280;4325;42.520;27.448;2023-08-21T09:05:28;100980.66;;;55.91;11.65
8575;BME280;4325;42.520;27.448;2023-08-21T09:08:09;100988.69;;;55.75;10.81
8575;BME280;4325;42.520;27.448;2023-08-21T09:10:37;100987.72;;;55.88;11.05
8575;BME280;4325;42.520;27.448;2023-08-21T09:13:10;100990.16;;;56.27;10.59
8575;BME280;4325;42.520;27.448;2023-08-21T09:15:37;100973.78;;;55.38;11.29
8575;BME280;4325;42.520;27.448;2023-08-21T09:18:08;100970.13;;;55.09;12.05
8575;BME280;4325;42.520;27.448;2023-08-21T09:20:38;100970.50;;;55.05;10.23
8575;BME280;4325;42.520;27.448;2023-08-21T09:23:05;100971.06;;;54.76;11.23
8575;BME280;4325;42.520;27.448;2023-08-21T09:25:35;100976.81;;;55.09;10.73
8575;BME280;4325;42.520;27.448;2023-08-21T09:28:05;100975.72;;;55.28;11.48
8575;BME280;4325;42.520;27.448;2023-08-21T09:30:44;100972.72;;;54.84;11.53
8575;BME280;4325;42.520;27.448;2023-08-21T09:33:11;100969.66;;;54.69;11.89
8575;BME280;4325;42.520;27.448;2023-08-21T09:35:40;100969.44;;;55.24;11.54
8575;BME280;4325;42.520;27.448;2023-08-21T09:38:09;100975.75;;;55.78;10.97
8575;BME280;4325;42.520;27.448;2023-08-21T09:40:39;100975.25;;;56.10;10.49
8575;BME280;4325;42.520;27.448;2023-08-21T09:43:11;100972.69;;;56.90;10.33
8575;BME280;4325;42.520;27.448;2023-08-21T09:45:38;100969.34;;;56.93;10.50
8575;BME280;4325;42.520;27.448;2023-08-21T09:48:06;100959.00;;;56.32;11.03
8575;BME280;4325;42.520;27.448;2023-08-21T09:50:34;100965.09;;;56.42;10.13
8575;BME280;4325;42.520;27.448;2023-08-21T09:53:06;100967.03;;;56.47;10.84
8575;BME280;4325;42.520;27.448;2023-08-21T09:55:33;100966.41;;;56.93;10.07
8575;BME280;4325;42.520;27.448;2023-08-21T09:58:01;100975.97;;;57.24;9.62
8575;BME280;4325;42.520;27.448;2023-08-21T10:00:30;100964.69;;;56.68;10.00
8575;BME280;4325;42.520;27.448;2023-08-21T10:03:01;100959.97;;;55.10;11.23
8575;BME280;4325;42.520;27.448;2023-08-21T10:05:29;100957.06;;;53.99;11.64
8575;BME280;4325;42.520;27.448;2023-08-21T10:08:00;100953.38;;;54.19;11.88
8575;BME280;4325;42.520;27.448;2023-08-21T10:10:30;100958.66;;;54.21;12.08
8575;BME280;4325;42.520;27.448;2023-08-21T10:12:58;100956.13;;;54.45;11.53
8575;BME280;4325;42.520;27.448;2023-08-21T10:15:26;100948.28;;;55.17;11.17
8575;BME280;4325;42.520;27.448;2023-08-21T10:17:54;100951.41;;;55.20;10.88
8575;BME280;4325;42.520;27.448;2023-08-21T10:20:22;100947.19;;;54.23;11.49
8575;BME280;4325;42.520;27.448;2023-08-21T10:22:53;100944.28;;;54.10;11.96
8575;BME280;4325;42.520;27.448;2023-08-21T10:25:21;100935.81;;;54.19;12.67
8575;BME280;4325;42.520;27.448;2023-08-21T10:27:55;100952.16;;;54.56;12.32
8575;BME280;4325;42.520;27.448;2023-08-21T10:30:23;100942.41;;;54.61;12.81
8575;BME280;4325;42.520;27.448;2023-08-21T10:32:52;100950.16;;;54.51;13.32
8575;BME280;4325;42.520;27.448;2023-08-21T10:35:21;100944.88;;;54.49;13.31
8575;BME280;4325;42.520;27.448;2023-08-21T10:38:10;100942.88;;;55.37;12.97
8575;BME280;4325;42.520;27.448;2023-08-21T10:40:39;100945.44;;;56.21;12.48
8575;BME280;4325;42.520;27.448;2023-08-21T10:43:40;100946.47;;;56.62;13.46
8575;BME280;4325;42.520;27.448;2023-08-21T10:46:09;100947.47;;;57.19;12.44
8575;BME280;4325;42.520;27.448;2023-08-21T10:48:37;100945.25;;;56.65;13.73
8575;BME280;4325;42.520;27.448;2023-08-21T10:51:06;100941.47;;;55.38;14.83
8575;BME280;4325;42.520;27.448;2023-08-21T10:53:34;100939.78;;;55.50;14.42
8575;BME280;4325;42.520;27.448;2023-08-21T10:56:04;100935.09;;;55.47;14.35
8575;BME280;4325;42.520;27.448;2023-08-21T10:58:38;100940.34;;;56.67;13.55
8575;BME280;4325;42.520;27.448;2023-08-21T11:01:07;100941.88;;;57.53;12.62
8575;BME280;4325;42.520;27.448;2023-08-21T11:03:38;100937.63;;;57.32;11.86
8575;BME280;4325;42.520;27.448;2023-08-21T11:06:07;100944.69;;;56.44;12.75
8575;BME280;4325;42.520;27.448;2023-08-21T11:08:34;100935.84;;;55.04;13.94
8575;BME280;4325;42.520;27.448;2023-08-21T11:11:03;100928.91;;;54.86;14.53
8575;BME280;4325;42.520;27.448;2023-08-21T11:13:30;100934.91;;;54.52;14.79
8575;BME280;4325;42.520;27.448;2023-08-21T11:15:58;100920.22;;;54.04;14.38
8575;BME280;4325;42.520;27.448;2023-08-21T11:18:34;100934.78;;;54.37;14.25
8575;BME280;4325;42.520;27.448;2023-08-21T11:21:08;100934.13;;;55.08;13.72
8575;BME280;4325;42.520;27.448;2023-08-21T11:23:37;100929.38;;;56.15;13.14
8575;BME280;4325;42.520;27.448;2023-08-21T11:26:05;100936.72;;;54.35;14.32
8575;BME280;4325;42.520;27.448;2023-08-21T11:28:33;100931.31;;;52.91;15.60
8575;BME280;4325;42.520;27.448;2023-08-21T11:31:00;100928.91;;;52.76;15.98
8575;BME280;4325;42.520;27.448;2023-08-21T11:33:28;100927.44;;;52.56;16.95
8575;BME280;4325;42.520;27.448;2023-08-21T11:35:57;100929.88;;;52.39;16.73
8575;BME280;4325;42.520;27.448;2023-08-21T11:38:25;100921.38;;;52.81;16.82
8575;BME280;4325;42.520;27.448;2023-08-21T11:40:54;100921.22;;;53.39;16.29
8575;BME280;4325;42.520;27.448;2023-08-21T11:43:21;100931.28;;;53.30;16.99
8575;BME280;4325;42.520;27.448;2023-08-21T11:45:49;100921.25;;;52.73;16.98
8575;BME280;4325;42.520;27.448;2023-08-21T11:48:19;100926.22;;;53.04;16.53
8575;BME280;4325;42.520;27.448;2023-08-21T11:50:48;100931.50;;;53.32;17.24
8575;BME280;4325;42.520;27.448;2023-08-21T11:53:32;100919.59;;;53.51;17.36
8575;BME280;4325;42.520;27.448;2023-08-21T11:56:00;100917.06;;;52.42;18.13
8575;BME280;4325;42.520;27.448;2023-08-21T11:58:28;100922.25;;;52.04;18.86
8575;BME280;4325;42.520;27.448;2023-08-21T12:01:00;100915.31;;;51.57;19.05
8575;BME280;4325;42.520;27.448;2023-08-21T12:03:29;100915.66;;;51.29;19.63
8575;BME280;4325;42.520;27.448;2023-08-21T12:05:56;100910.50;;;50.98;19.62
8575;BME280;4325;42.520;27.448;2023-08-21T12:08:24;100921.75;;;50.64;19.99
8575;BME280;4325;42.520;27.448;2023-08-21T12:10:52;100912.13;;;50.15;20.90
8575;BME280;4325;42.520;27.448;2023-08-21T12:13:19;100915.47;;;49.95;20.47
8575;BME280;4325;42.520;27.448;2023-08-21T12:15:47;100910.13;;;50.35;20.51
8575;BME280;4325;42.520;27.448;2023-08-21T12:18:14;100918.09;;;50.58;20.52
8575;BME280;4325;42.520;27.448;2023-08-21T12:20:43;100920.84;;;50.99;20.28
8575;BME280;4325;42.520;27.448;2023-08-21T12:23:10;100911.59;;;50.95;20.38
8575;BME280;4325;42.520;27.448;2023-08-21T12:25:37;100923.03;;;50.93;19.99
8575;BME280;4325;42.520;27.448;2023-08-21T12:28:06;100918.16;;;51.01;20.49
8575;BME280;4325;42.520;27.448;2023-08-21T12:30:33;100918.53;;;49.27;21.65
8575;BME280;4325;42.520;27.448;2023-08-21T12:33:00;100913.59;;;49.63;20.75
8575;BME280;4325;42.520;27.448;2023-08-21T12:35:28;100922.34;;;49.63;20.30
8575;BME280;4325;42.520;27.448;2023-08-21T12:37:57;100924.03;;;48.67;22.78
8575;BME280;4325;42.520;27.448;2023-08-21T12:40:24;100920.97;;;46.75;24.70
8575;BME280;4325;42.520;27.448;2023-08-21T12:42:51;100911.56;;;47.50;23.46
8575;BME280;4325;42.520;27.448;2023-08-21T12:45:20;100911.91;;;48.30;21.85
8575;BME280;4325;42.520;27.448;2023-08-21T12:47:47;100917.97;;;48.60;22.53
8575;BME280;4325;42.520;27.448;2023-08-21T12:50:14;100910.44;;;49.09;21.17
8575;BME280;4325;42.520;27.448;2023-08-21T12:52:41;100912.91;;;49.45;20.71
8575;BME280;4325;42.520;27.448;2023-08-21T12:55:08;100901.47;;;48.95;21.52
8575;BME280;4325;42.520;27.448;2023-08-21T12:57:35;100909.41;;;49.93;21.03
8575;BME280;4325;42.520;27.448;2023-08-21T13:00:03;100896.72;;;50.20;21.61
8575;BME280;4325;42.520;27.448;2023-08-21T13:02:31;100907.69;;;49.74;20.67